sensor_id;sensor_type;location;lat;lon;timestamp;temperature;humidity
13982;DHT22;7065;50.880;5.502;2023-12-20T00:00:58;6.90;99.90
13982;DHT22;7065;50.880;5.502;2023-12-20T00:03:24;6.80;99.90
13982;DHT22;7065;50.880;5.502;2023-12-20T00:05:50;6.80;99.90
13982;DHT22;7065;50.880;5.502;2023-12-20T00:08:16;6.70;99.90
13982;DHT22;7065;50.880;5.502;2023-12-20T00:10:43;6.60;99.90
13982;DHT22;7065;50.880;5.502;2023-12-20T00:13:08;6.60;99.90
13982;DHT22;7065;50.880;5.502;2023-12-20T00:15:34;6.50;99.90
13982;DHT22;7065;50.880;5.502;2023-12-20T00:18:00;6.40;99.90
13982;DHT22;7065;50.880;5.502;2023-12-20T00:20:26;6.40;99.90
13982;DHT22;7065;50.880;5.502;2023-12-20T00:22:54;6.40;99.90
13982;DHT22;7065;50.880;5.502;2023-12-20T00:25:20;6.30;99.90
13982;DHT22;7065;50.880;5.502;2023-12-20T00:27:45;6.30;99.90
13982;DHT22;7065;50.880;5.502;2023-12-20T00:30:11;6.30;99.90
13982;DHT22;7065;50.880;5.502;2023-12-20T00:32:38;6.30;99.90
13982;DHT22;7065;50.880;5.502;2023-12-20T00:35:04;6.30;99.90
13982;DHT22;7065;50.880;5.502;2023-12-20T00:37:30;6.30;99.90
13982;DHT22;7065;50.880;5.502;2023-12-20T00:39:55;6.40;99.90
13982;DHT22;7065;50.880;5.502;2023-12-20T00:42:21;6.40;99.90
13982;DHT22;7065;50.880;5.502;2023-12-20T00:44:47;6.30;99.90
13982;DHT22;7065;50.880;5.502;2023-12-20T00:47:14;6.30;99.90
13982;DHT22;7065;50.880;5.502;2023-12-20T00:49:40;6.30;99.90
13982;DHT22;7065;50.880;5.502;2023-12-20T00:52:05;6.30;99.90
13982;DHT22;7065;50.880;5.502;2023-12-20T00:54:31;6.20;99.90
13982;DHT22;7065;50.880;5.502;2023-12-20T00:56:57;6.20;99.90
13982;DHT22;7065;50.880;5.502;2023-12-20T00:59:22;6.10;99.90
13982;DHT22;7065;50.880;5.502;2023-12-20T01:01:48;6.10;99.90
13982;DHT22;7065;50.880;5.502;2023-12-20T01:04:13;6.10;99.90
13982;DHT22;7065;50.880;5.502;2023-12-20T01:06:39;6.10;99.90
13982;DHT22;7065;50.880;5.502;2023-12-20T01:09:05;6.10;99.90
13982;DHT22;7065;50.880;5.502;2023-12-20T01:11:31;6.00;99.90
13982;DHT22;7065;50.880;5.502;2023-12-20T01:13:57;6.00;99.90
13982;DHT22;7065;50.880;5.502;2023-12-20T01:16:22;5.90;99.90
13982;DHT22;7065;50.880;5.502;2023-12-20T01:18:48;5.90;99.90
13982;DHT22;7065;50.880;5.502;2023-12-20T01:21:14;5.90;99.90
13982;DHT22;7065;50.880;5.502;2023-12-20T01:23:40;5.90;99.90
13982;DHT22;7065;50.880;5.502;2023-12-20T01:26:06;5.80;99.90
13982;DHT22;7065;50.880;5.502;2023-12-20T01:28:31;5.80;99.90
13982;DHT22;7065;50.880;5.502;2023-12-20T01:30:57;5.80;99.90
13982;DHT22;7065;50.880;5.502;2023-12-20T01:33:23;5.80;99.90
13982;DHT22;7065;50.880;5.502;2023-12-20T01:35:49;5.90;99.90
13982;DHT22;7065;50.880;5.502;2023-12-20T01:38:14;5.80;99.90
13982;DHT22;7065;50.880;5.502;2023-12-20T01:40:40;5.80;99.90
13982;DHT22;7065;50.880;5.502;2023-12-20T01:43:09;5.80;99.90
13982;DHT22;7065;50.880;5.502;2023-12-20T01:45:35;5.80;99.90
13982;DHT22;7065;50.880;5.502;2023-12-20T01:48:01;5.80;99.90
13982;DHT22;7065;50.880;5.502;2023-12-20T01:50:28;5.80;99.90
13982;DHT22;7065;50.880;5.502;2023-12-20T01:52:55;5.70;99.90
13982;DHT22;7065;50.880;5.502;2023-12-20T01:55:23;5.60;99.90
13982;DHT22;7065;50.880;5.502;2023-12-20T01:57:49;5.50;99.90
13982;DHT22;7065;50.880;5.502;2023-12-20T02:00:16;5.50;99.90
13982;DHT22;7065;50.880;5.502;2023-12-20T02:02:43;5.50;99.90
13982;DHT22;7065;50.880;5.502;2023-12-20T02:05:10;5.50;99.90
13982;DHT22;7065;50.880;5.502;2023-12-20T02:07:36;5.40;99.90
13982;DHT22;7065;50.880;5.502;2023-12-20T02:10:02;5.40;99.90
13982;DHT22;7065;50.880;5.502;2023-12-20T02:12:29;5.40;99.90
13982;DHT22;7065;50.880;5.502;2023-12-20T02:14:55;5.40;99.90
13982;DHT22;7065;50.880;5.502;2023-12-20T02:17:22;5.50;99.90
13982;DHT22;7065;50.880;5.502;2023-12-20T02:19:49;5.50;99.90
13982;DHT22;7065;50.880;5.502;2023-12-20T02:22:15;5.50;99.90
13982;DHT22;7065;50.880;5.502;2023-12-20T02:24:41;5.40;99.90
13982;DHT22;7065;50.880;5.502;2023-12-20T02:27:07;5.40;99.90
13982;DHT22;7065;50.880;5.502;2023-12-20T02:29:36;5.30;99.90
13982;DHT22;7065;50.880;5.502;2023-12-20T02:32:02;5.30;99.90
13982;DHT22;7065;50.880;5.502;2023-12-20T02:34:28;5.20;99.90
13982;DHT22;7065;50.880;5.502;2023-12-20T02:36:54;5.20;99.90
13982;DHT22;7065;50.880;5.502;2023-12-20T02:39:21;5.10;99.90
13982;DHT22;7065;50.880;5.502;2023-12-20T02:41:48;5.10;99.90
13982;DHT22;7065;50.880;5.502;2023-12-20T02:44:14;5.10;99.90
13982;DHT22;7065;50.880;5.502;2023-12-20T02:46:39;5.10;99.90
13982;DHT22;7065;50.880;5.502;2023-12-20T02:49:06;5.10;99.90
13982;DHT22;7065;50.880;5.502;2023-12-20T02:51:32;5.00;99.90
13982;DHT22;7065;50.880;5.502;2023-12-20T02:53:57;5.00;99.90
13982;DHT22;7065;50.880;5.502;2023-12-20T02:56:23;5.00;99.90
13982;DHT22;7065;50.880;5.502;2023-12-20T02:58:49;5.00;99.90
13982;DHT22;7065;50.880;5.502;2023-12-20T03:01:14;5.00;99.90
13982;DHT22;7065;50.880;5.502;2023-12-20T03:03:40;5.00;99.90
13982;DHT22;7065;50.880;5.502;2023-12-20T03:06:06;5.00;99.90
13982;DHT22;7065;50.880;5.502;2023-12-20T03:08:31;5.00;99.90
13982;DHT22;7065;50.880;5.502;2023-12-20T03:11:01;5.00;99.90
13982;DHT22;7065;50.880;5.502;2023-12-20T03:13:27;4.90;99.90
13982;DHT22;7065;50.880;5.502;2023-12-20T03:15:52;5.00;99.90
13982;DHT22;7065;50.880;5.502;2023-12-20T03:18:18;4.90;99.90
13982;DHT22;7065;50.880;5.502;2023-12-20T03:20:44;4.90;99.90
13982;DHT22;7065;50.880;5.502;2023-12-20T03:23:09;4.90;99.90
13982;DHT22;7065;50.880;5.502;2023-12-20T03:25:35;5.00;99.90
13982;DHT22;7065;50.880;5.502;2023-12-20T03:28:00;5.00;99.90
13982;DHT22;7065;50.880;5.502;2023-12-20T03:30:26;5.00;99.90
13982;DHT22;7065;50.880;5.502;2023-12-20T03:32:52;5.10;99.90
13982;DHT22;7065;50.880;5.502;2023-12-20T03:35:17;5.10;99.90
13982;DHT22;7065;50.880;5.502;2023-12-20T03:37:43;5.10;99.90
13982;DHT22;7065;50.880;5.502;2023-12-20T03:40:09;5.10;99.90
13982;DHT22;7065;50.880;5.502;2023-12-20T03:42:35;5.10;99.90
13982;DHT22;7065;50.880;5.502;2023-12-20T03:45:01;5.10;99.90
13982;DHT22;7065;50.880;5.502;2023-12-20T03:47:26;5.20;99.90
13982;DHT22;7065;50.880;5.502;2023-12-20T03:49:53;5.20;99.90
13982;DHT22;7065;50.880;5.502;2023-12-20T03:52:19;5.20;99.90
13982;DHT22;7065;50.880;5.502;2023-12-20T03:54:45;5.20;99.90
13982;DHT22;7065;50.880;5.502;2023-12-20T03:57:10;5.20;99.90
13982;DHT22;7065;50.880;5.502;2023-12-20T03:59:36;5.20;99.90
13982;DHT22;7065;50.880;5.502;2023-12-20T04:02:02;5.20;99.90
13982;DHT22;7065;50.880;5.502;2023-12-20T04:04:28;5.20;99.90
13982;DHT22;7065;50.880;5.502;2023-12-20T04:06:54;5.20;99.90
13982;DHT22;7065;50.880;5.502;2023-12-20T04:09:20;5.20;99.90
13982;DHT22;7065;50.880;5.502;2023-12-20T04:11:45;5.30;99.90
13982;DHT22;7065;50.880;5.502;2023-12-20T04:14:11;5.30;99.90
13982;DHT22;7065;50.880;5.502;2023-12-20T04:16:36;5.30;99.90
13982;DHT22;7065;50.880;5.502;2023-12-20T04:19:02;5.30;99.90
13982;DHT22;7065;50.880;5.502;2023-12-20T04:21:28;5.30;99.90
13982;DHT22;7065;50.880;5.502;2023-12-20T04:23:53;5.30;99.90
13982;DHT22;7065;50.880;5.502;2023-12-20T04:26:19;5.30;99.90
13982;DHT22;7065;50.880;5.502;2023-12-20T04:28:45;5.30;99.90
13982;DHT22;7065;50.880;5.502;2023-12-20T04:31:11;5.40;99.90
13982;DHT22;7065;50.880;5.502;2023-12-20T04:33:37;5.40;99.90
13982;DHT22;7065;50.880;5.502;2023-12-20T04:36:02;5.40;99.90
13982;DHT22;7065;50.880;5.502;2023-12-20T04:38:28;5.40;99.90
13982;DHT22;7065;50.880;5.502;2023-12-20T04:40:54;5.50;99.90
13982;DHT22;7065;50.880;5.502;2023-12-20T04:43:19;5.50;99.90
13982;DHT22;7065;50.880;5.502;2023-12-20T04:45:45;5.50;99.90
13982;DHT22;7065;50.880;5.502;2023-12-20T04:48:12;5.50;99.90
13982;DHT22;7065;50.880;5.502;2023-12-20T04:50:37;5.40;99.90
13982;DHT22;7065;50.880;5.502;2023-12-20T04:53:03;5.50;99.90
13982;DHT22;7065;50.880;5.502;2023-12-20T04:55:29;5.50;99.90
13982;DHT22;7065;50.880;5.502;2023-12-20T04:57:55;5.50;99.90
13982;DHT22;7065;50.880;5.502;2023-12-20T05:00:21;5.50;99.90
13982;DHT22;7065;50.880;5.502;2023-12-20T05:02:47;5.50;99.90
13982;DHT22;7065;50.880;5.502;2023-12-20T05:05:13;5.50;99.90
13982;DHT22;7065;50.880;5.502;2023-12-20T05:07:40;5.50;99.90
13982;DHT22;7065;50.880;5.502;2023-12-20T05:10:06;5.50;99.90
13982;DHT22;7065;50.880;5.502;2023-12-20T05:12:34;5.40;99.90
13982;DHT22;7065;50.880;5.502;2023-12-20T05:15:00;5.40;99.90
13982;DHT22;7065;50.880;5.502;2023-12-20T05:17:25;5.40;99.90
13982;DHT22;7065;50.880;5.502;2023-12-20T05:19:51;5.40;99.90
13982;DHT22;7065;50.880;5.502;2023-12-20T05:22:17;5.40;99.90
13982;DHT22;7065;50.880;5.502;2023-12-20T05:24:44;5.40;99.90
13982;DHT22;7065;50.880;5.502;2023-12-20T05:27:09;5.40;99.90
13982;DHT22;7065;50.880;5.502;2023-12-20T05:29:35;5.40;99.90
13982;DHT22;7065;50.880;5.502;2023-12-20T05:32:01;5.40;99.90
13982;DHT22;7065;50.880;5.502;2023-12-20T05:34:26;5.40;99.90
13982;DHT22;7065;50.880;5.502;2023-12-20T05:36:54;5.30;99.90
13982;DHT22;7065;50.880;5.502;2023-12-20T05:39:19;5.30;99.90
13982;DHT22;7065;50.880;5.502;2023-12-20T05:41:45;5.30;99.90
13982;DHT22;7065;50.880;5.502;2023-12-20T05:44:11;5.30;99.90
13982;DHT22;7065;50.880;5.502;2023-12-20T05:46:36;5.30;99.90
13982;DHT22;7065;50.880;5.502;2023-12-20T05:49:02;5.20;99.90
13982;DHT22;7065;50.880;5.502;2023-12-20T05:51:28;5.20;99.90
13982;DHT22;7065;50.880;5.502;2023-12-20T05:53:54;5.20;99.90
13982;DHT22;7065;50.880;5.502;2023-12-20T05:56:19;5.20;99.90
13982;DHT22;7065;50.880;5.502;2023-12-20T05:58:45;5.20;99.90
13982;DHT22;7065;50.880;5.502;2023-12-20T06:01:11;5.10;99.90
13982;DHT22;7065;50.880;5.502;2023-12-20T06:03:40;5.10;99.90
13982;DHT22;7065;50.880;5.502;2023-12-20T06:06:07;5.00;99.90
13982;DHT22;7065;50.880;5.502;2023-12-20T06:08:33;5.00;99.90
13982;DHT22;7065;50.880;5.502;2023-12-20T06:10:58;4.90;99.90
13982;DHT22;7065;50.880;5.502;2023-12-20T06:13:24;4.90;99.90
13982;DHT22;7065;50.880;5.502;2023-12-20T06:15:49;4.90;99.90
13982;DHT22;7065;50.880;5.502;2023-12-20T06:18:15;4.90;99.90
13982;DHT22;7065;50.880;5.502;2023-12-20T06:20:41;4.90;99.90
13982;DHT22;7065;50.880;5.502;2023-12-20T06:23:06;4.80;99.90
13982;DHT22;7065;50.880;5.502;2023-12-20T06:25:32;4.80;99.90
13982;DHT22;7065;50.880;5.502;2023-12-20T06:27:57;4.80;99.90
13982;DHT22;7065;50.880;5.502;2023-12-20T06:30:23;4.80;99.90
13982;DHT22;7065;50.880;5.502;2023-12-20T06:32:50;4.80;99.90
13982;DHT22;7065;50.880;5.502;2023-12-20T06:35:16;4.80;99.90
13982;DHT22;7065;50.880;5.502;2023-12-20T06:37:41;4.80;99.90
13982;DHT22;7065;50.880;5.502;2023-12-20T06:40:11;4.80;99.90
13982;DHT22;7065;50.880;5.502;2023-12-20T06:42:37;4.80;99.90
13982;DHT22;7065;50.880;5.502;2023-12-20T06:45:03;4.80;99.90
13982;DHT22;7065;50.880;5.502;2023-12-20T06:47:28;4.90;99.90
13982;DHT22;7065;50.880;5.502;2023-12-20T06:49:54;4.90;99.90
13982;DHT22;7065;50.880;5.502;2023-12-20T06:52:20;5.00;99.90
13982;DHT22;7065;50.880;5.502;2023-12-20T06:54:45;5.00;99.90
13982;DHT22;7065;50.880;5.502;2023-12-20T06:57:11;5.00;99.90
13982;DHT22;7065;50.880;5.502;2023-12-20T06:59:40;5.00;99.90
13982;DHT22;7065;50.880;5.502;2023-12-20T07:02:06;5.10;99.90
13982;DHT22;7065;50.880;5.502;2023-12-20T07:04:33;5.10;99.90
13982;DHT22;7065;50.880;5.502;2023-12-20T07:06:59;5.10;99.90
13982;DHT22;7065;50.880;5.502;2023-12-20T07:09:26;5.10;99.90
13982;DHT22;7065;50.880;5.502;2023-12-20T07:11:52;5.20;99.90
13982;DHT22;7065;50.880;5.502;2023-12-20T07:14:18;5.20;99.90
13982;DHT22;7065;50.880;5.502;2023-12-20T07:16:44;5.10;99.90
13982;DHT22;7065;50.880;5.502;2023-12-20T07:19:09;5.10;99.90
13982;DHT22;7065;50.880;5.502;2023-12-20T07:21:35;5.00;99.90
13982;DHT22;7065;50.880;5.502;2023-12-20T07:24:01;5.00;99.90
13982;DHT22;7065;50.880;5.502;2023-12-20T07:26:27;5.00;99.90
13982;DHT22;7065;50.880;5.502;2023-12-20T07:28:52;5.00;99.90
13982;DHT22;7065;50.880;5.502;2023-12-20T07:31:18;4.90;99.90
13982;DHT22;7065;50.880;5.502;2023-12-20T07:33:44;4.90;99.90
13982;DHT22;7065;50.880;5.502;2023-12-20T07:36:09;4.90;99.90
13982;DHT22;7065;50.880;5.502;2023-12-20T07:38:35;4.90;99.90
13982;DHT22;7065;50.880;5.502;2023-12-20T07:41:01;4.90;99.90
13982;DHT22;7065;50.880;5.502;2023-12-20T07:43:27;4.90;99.90
13982;DHT22;7065;50.880;5.502;2023-12-20T07:45:53;4.90;99.90
13982;DHT22;7065;50.880;5.502;2023-12-20T07:48:18;4.90;99.90
13982;DHT22;7065;50.880;5.502;2023-12-20T07:50:44;4.90;99.90
13982;DHT22;7065;50.880;5.502;2023-12-20T07:53:10;4.90;99.90
13982;DHT22;7065;50.880;5.502;2023-12-20T07:55:36;4.90;99.90
13982;DHT22;7065;50.880;5.502;2023-12-20T07:58:01;4.90;99.90
13982;DHT22;7065;50.880;5.502;2023-12-20T08:00:27;4.90;99.90
13982;DHT22;7065;50.880;5.502;2023-12-20T08:02:53;4.80;99.90
13982;DHT22;7065;50.880;5.502;2023-12-20T08:05:19;4.80;99.90
13982;DHT22;7065;50.880;5.502;2023-12-20T08:07:44;4.80;99.90
13982;DHT22;7065;50.880;5.502;2023-12-20T08:10:10;4.80;99.90
13982;DHT22;7065;50.880;5.502;2023-12-20T08:12:36;4.80;99.90
13982;DHT22;7065;50.880;5.502;2023-12-20T08:15:02;4.80;99.90
13982;DHT22;7065;50.880;5.502;2023-12-20T08:17:29;4.80;99.90
13982;DHT22;7065;50.880;5.502;2023-12-20T08:19:55;4.80;99.90
13982;DHT22;7065;50.880;5.502;2023-12-20T08:22:21;4.80;99.90
13982;DHT22;7065;50.880;5.502;2023-12-20T08:24:46;4.80;99.90
13982;DHT22;7065;50.880;5.502;2023-12-20T08:27:12;4.80;99.90
13982;DHT22;7065;50.880;5.502;2023-12-20T08:29:38;4.80;99.90
13982;DHT22;7065;50.880;5.502;2023-12-20T08:32:04;4.80;99.90
13982;DHT22;7065;50.880;5.502;2023-12-20T08:34:30;4.90;99.90
13982;DHT22;7065;50.880;5.502;2023-12-20T08:36:56;4.90;99.90
13982;DHT22;7065;50.880;5.502;2023-12-20T08:39:21;4.90;99.90
13982;DHT22;7065;50.880;5.502;2023-12-20T08:41:47;4.90;99.90
13982;DHT22;7065;50.880;5.502;2023-12-20T08:44:12;4.90;99.90
13982;DHT22;7065;50.880;5.502;2023-12-20T08:46:38;5.00;99.90
13982;DHT22;7065;50.880;5.502;2023-12-20T08:49:04;5.00;99.90
13982;DHT22;7065;50.880;5.502;2023-12-20T08:51:30;5.00;99.90
13982;DHT22;7065;50.880;5.502;2023-12-20T08:53:56;5.00;99.90
13982;DHT22;7065;50.880;5.502;2023-12-20T08:56:21;5.10;99.90
13982;DHT22;7065;50.880;5.502;2023-12-20T08:58:47;5.20;99.90
13982;DHT22;7065;50.880;5.502;2023-12-20T09:01:14;5.30;99.90
13982;DHT22;7065;50.880;5.502;2023-12-20T09:03:40;5.30;99.90
13982;DHT22;7065;50.880;5.502;2023-12-20T09:06:06;5.30;99.90
13982;DHT22;7065;50.880;5.502;2023-12-20T09:08:32;5.30;99.90
13982;DHT22;7065;50.880;5.502;2023-12-20T09:10:58;5.30;99.90
13982;DHT22;7065;50.880;5.502;2023-12-20T09:13:24;5.30;99.90
13982;DHT22;7065;50.880;5.502;2023-12-20T09:15:55;5.40;99.90
13982;DHT22;7065;50.880;5.502;2023-12-20T09:18:20;5.40;99.90
13982;DHT22;7065;50.880;5.502;2023-12-20T09:20:46;5.30;99.90
13982;DHT22;7065;50.880;5.502;2023-12-20T09:23:12;5.30;99.90
13982;DHT22;7065;50.880;5.502;2023-12-20T09:25:37;5.30;99.90
13982;DHT22;7065;50.880;5.502;2023-12-20T09:28:03;5.30;99.90
13982;DHT22;7065;50.880;5.502;2023-12-20T09:30:29;5.30;99.90
13982;DHT22;7065;50.880;5.502;2023-12-20T09:32:55;5.30;99.90
13982;DHT22;7065;50.880;5.502;2023-12-20T09:35:21;5.30;99.90
13982;DHT22;7065;50.880;5.502;2023-12-20T09:37:47;5.40;99.90
13982;DHT22;7065;50.880;5.502;2023-12-20T09:40:18;5.40;99.90
13982;DHT22;7065;50.880;5.502;2023-12-20T09:42:57;5.40;99.90
13982;DHT22;7065;50.880;5.502;2023-12-20T09:45:24;5.50;99.90
13982;DHT22;7065;50.880;5.502;2023-12-20T09:47:51;5.50;99.90
13982;DHT22;7065;50.880;5.502;2023-12-20T09:50:19;5.60;99.90
13982;DHT22;7065;50.880;5.502;2023-12-20T09:52:49;5.70;99.90
13982;DHT22;7065;50.880;5.502;2023-12-20T09:55:17;5.70;99.90
13982;DHT22;7065;50.880;5.502;2023-12-20T09:57:42;5.70;99.90
13982;DHT22;7065;50.880;5.502;2023-12-20T10:00:09;5.70;99.90
13982;DHT22;7065;50.880;5.502;2023-12-20T10:02:37;5.80;99.90
13982;DHT22;7065;50.880;5.502;2023-12-20T10:05:06;5.80;99.90
13982;DHT22;7065;50.880;5.502;2023-12-20T10:07:35;5.90;99.90
13982;DHT22;7065;50.880;5.502;2023-12-20T10:10:02;5.90;99.90
13982;DHT22;7065;50.880;5.502;2023-12-20T10:12:28;5.90;99.90
13982;DHT22;7065;50.880;5.502;2023-12-20T10:14:53;6.00;99.90
13982;DHT22;7065;50.880;5.502;2023-12-20T10:17:19;6.00;99.90
13982;DHT22;7065;50.880;5.502;2023-12-20T10:19:47;6.10;99.90
13982;DHT22;7065;50.880;5.502;2023-12-20T10:22:12;6.10;99.90
13982;DHT22;7065;50.880;5.502;2023-12-20T10:24:39;6.20;99.90
13982;DHT22;7065;50.880;5.502;2023-12-20T10:27:06;6.30;99.90
13982;DHT22;7065;50.880;5.502;2023-12-20T10:29:35;6.40;99.90
13982;DHT22;7065;50.880;5.502;2023-12-20T10:32:25;6.40;99.90
13982;DHT22;7065;50.880;5.502;2023-12-20T10:34:52;6.60;99.90
13982;DHT22;7065;50.880;5.502;2023-12-20T10:37:18;6.50;99.90
13982;DHT22;7065;50.880;5.502;2023-12-20T10:39:44;6.50;99.90
13982;DHT22;7065;50.880;5.502;2023-12-20T10:42:14;6.50;99.90
13982;DHT22;7065;50.880;5.502;2023-12-20T10:44:41;6.50;99.90
13982;DHT22;7065;50.880;5.502;2023-12-20T10:47:06;6.40;99.90
13982;DHT22;7065;50.880;5.502;2023-12-20T10:49:36;6.40;99.90
13982;DHT22;7065;50.880;5.502;2023-12-20T10:52:04;6.40;99.90
13982;DHT22;7065;50.880;5.502;2023-12-20T10:54:31;6.50;99.90
13982;DHT22;7065;50.880;5.502;2023-12-20T10:56:58;6.50;99.90
13982;DHT22;7065;50.880;5.502;2023-12-20T10:59:24;6.50;99.90
13982;DHT22;7065;50.880;5.502;2023-12-20T11:01:50;6.60;99.90
13982;DHT22;7065;50.880;5.502;2023-12-20T11:07:35;6.60;99.90
13982;DHT22;7065;50.880;5.502;2023-12-20T11:10:17;6.60;99.90
13982;DHT22;7065;50.880;5.502;2023-12-20T11:12:49;6.70;99.90
13982;DHT22;7065;50.880;5.502;2023-12-20T11:15:17;6.70;99.90
13982;DHT22;7065;50.880;5.502;2023-12-20T11:17:56;6.70;99.90
13982;DHT22;7065;50.880;5.502;2023-12-20T11:20:41;6.70;99.90
13982;DHT22;7065;50.880;5.502;2023-12-20T11:23:10;6.70;99.90
13982;DHT22;7065;50.880;5.502;2023-12-20T11:25:48;6.70;99.90
13982;DHT22;7065;50.880;5.502;2023-12-20T11:28:14;6.80;99.90
13982;DHT22;7065;50.880;5.502;2023-12-20T11:30:47;6.80;99.90
13982;DHT22;7065;50.880;5.502;2023-12-20T11:33:14;6.80;99.90
13982;DHT22;7065;50.880;5.502;2023-12-20T11:35:41;6.80;99.90
13982;DHT22;7065;50.880;5.502;2023-12-20T11:38:10;6.80;99.90
13982;DHT22;7065;50.880;5.502;2023-12-20T11:40:36;6.80;99.90
13982;DHT22;7065;50.880;5.502;2023-12-20T11:43:03;6.80;99.90
13982;DHT22;7065;50.880;5.502;2023-12-20T11:45:30;6.80;99.90
13982;DHT22;7065;50.880;5.502;2023-12-20T11:47:56;6.80;99.90
13982;DHT22;7065;50.880;5.502;2023-12-20T11:50:23;6.80;99.90
13982;DHT22;7065;50.880;5.502;2023-12-20T11:52:51;6.80;99.90
13982;DHT22;7065;50.880;5.502;2023-12-20T11:55:17;6.80;99.90
13982;DHT22;7065;50.880;5.502;2023-12-20T11:57:43;6.90;99.90
13982;DHT22;7065;50.880;5.502;2023-12-20T12:00:10;6.90;99.90
13982;DHT22;7065;50.880;5.502;2023-12-20T12:02:36;6.90;99.90
13982;DHT22;7065;50.880;5.502;2023-12-20T12:05:02;6.90;99.90
13982;DHT22;7065;50.880;5.502;2023-12-20T12:07:30;6.90;99.90
13982;DHT22;7065;50.880;5.502;2023-12-20T12:09:56;7.00;99.90
13982;DHT22;7065;50.880;5.502;2023-12-20T12:12:21;7.00;99.90
13982;DHT22;7065;50.880;5.502;2023-12-20T12:14:49;7.00;99.90
13982;DHT22;7065;50.880;5.502;2023-12-20T12:17:16;7.00;99.90
13982;DHT22;7065;50.880;5.502;2023-12-20T12:19:43;7.10;99.90
13982;DHT22;7065;50.880;5.502;2023-12-20T12:22:10;7.10;99.90
13982;DHT22;7065;50.880;5.502;2023-12-20T12:24:40;7.00;99.90
13982;DHT22;7065;50.880;5.502;2023-12-20T12:27:06;7.00;99.90
13982;DHT22;7065;50.880;5.502;2023-12-20T12:29:33;7.10;99.90
13982;DHT22;7065;50.880;5.502;2023-12-20T12:31:59;7.10;99.90
13982;DHT22;7065;50.880;5.502;2023-12-20T12:34:27;7.10;99.90
13982;DHT22;7065;50.880;5.502;2023-12-20T12:36:53;7.10;99.90
13982;DHT22;7065;50.880;5.502;2023-12-20T12:39:19;7.10;99.90
13982;DHT22;7065;50.880;5.502;2023-12-20T12:41:46;7.10;99.90
13982;DHT22;7065;50.880;5.502;2023-12-20T12:44:12;7.00;99.90
13982;DHT22;7065;50.880;5.502;2023-12-20T12:46:38;6.90;99.90
13982;DHT22;7065;50.880;5.502;2023-12-20T12:49:04;6.90;99.90
13982;DHT22;7065;50.880;5.502;2023-12-20T12:51:29;6.90;99.90
13982;DHT22;7065;50.880;5.502;2023-12-20T12:53:55;6.90;99.90
13982;DHT22;7065;50.880;5.502;2023-12-20T12:56:21;6.90;99.90
13982;DHT22;7065;50.880;5.502;2023-12-20T12:58:47;6.90;99.90
13982;DHT22;7065;50.880;5.502;2023-12-20T13:01:13;7.00;99.90
13982;DHT22;7065;50.880;5.502;2023-12-20T13:03:39;7.00;99.90
13982;DHT22;7065;50.880;5.502;2023-12-20T13:06:05;7.00;99.90
13982;DHT22;7065;50.880;5.502;2023-12-20T13:08:31;7.00;99.90
13982;DHT22;7065;50.880;5.502;2023-12-20T13:10:58;7.00;99.90
13982;DHT22;7065;50.880;5.502;2023-12-20T13:13:26;7.00;99.90
13982;DHT22;7065;50.880;5.502;2023-12-20T13:15:52;7.00;99.90
13982;DHT22;7065;50.880;5.502;2023-12-20T13:18:18;7.00;99.90
13982;DHT22;7065;50.880;5.502;2023-12-20T13:20:44;7.00;99.90
13982;DHT22;7065;50.880;5.502;2023-12-20T13:23:10;7.00;99.90
13982;DHT22;7065;50.880;5.502;2023-12-20T13:25:35;7.10;99.90
13982;DHT22;7065;50.880;5.502;2023-12-20T13:28:01;7.10;99.90
13982;DHT22;7065;50.880;5.502;2023-12-20T13:30:28;7.10;99.90
13982;DHT22;7065;50.880;5.502;2023-12-20T13:32:54;7.20;99.90
13982;DHT22;7065;50.880;5.502;2023-12-20T13:35:20;7.30;99.90
13982;DHT22;7065;50.880;5.502;2023-12-20T13:37:46;7.40;99.90
13982;DHT22;7065;50.880;5.502;2023-12-20T13:40:12;7.40;99.90
13982;DHT22;7065;50.880;5.502;2023-12-20T13:42:39;7.50;99.90
13982;DHT22;7065;50.880;5.502;2023-12-20T13:45:06;7.50;99.90
13982;DHT22;7065;50.880;5.502;2023-12-20T13:47:32;7.50;99.90
13982;DHT22;7065;50.880;5.502;2023-12-20T13:49:58;7.50;99.90
13982;DHT22;7065;50.880;5.502;2023-12-20T13:52:24;7.50;99.90
13982;DHT22;7065;50.880;5.502;2023-12-20T13:54:50;7.50;99.90
13982;DHT22;7065;50.880;5.502;2023-12-20T13:57:16;7.50;99.90
13982;DHT22;7065;50.880;5.502;2023-12-20T13:59:42;7.50;99.90
13982;DHT22;7065;50.880;5.502;2023-12-20T14:02:08;7.50;99.90
13982;DHT22;7065;50.880;5.502;2023-12-20T14:04:34;7.40;99.90
13982;DHT22;7065;50.880;5.502;2023-12-20T14:06:59;7.40;99.90
13982;DHT22;7065;50.880;5.502;2023-12-20T14:09:25;7.40;99.90
13982;DHT22;7065;50.880;5.502;2023-12-20T14:11:51;7.40;99.90
13982;DHT22;7065;50.880;5.502;2023-12-20T14:14:16;7.40;99.90
13982;DHT22;7065;50.880;5.502;2023-12-20T14:16:42;7.40;99.90
13982;DHT22;7065;50.880;5.502;2023-12-20T14:19:11;7.40;99.90
13982;DHT22;7065;50.880;5.502;2023-12-20T14:21:36;7.40;99.90
13982;DHT22;7065;50.880;5.502;2023-12-20T14:24:02;7.40;99.90
13982;DHT22;7065;50.880;5.502;2023-12-20T14:26:30;7.40;99.90
13982;DHT22;7065;50.880;5.502;2023-12-20T14:28:55;7.40;99.90
13982;DHT22;7065;50.880;5.502;2023-12-20T14:31:21;7.40;99.90
13982;DHT22;7065;50.880;5.502;2023-12-20T14:33:49;7.30;99.90
13982;DHT22;7065;50.880;5.502;2023-12-20T14:36:16;7.30;99.90
13982;DHT22;7065;50.880;5.502;2023-12-20T14:38:43;7.40;99.90
13982;DHT22;7065;50.880;5.502;2023-12-20T14:41:09;7.40;99.90
13982;DHT22;7065;50.880;5.502;2023-12-20T14:43:35;7.40;99.90
13982;DHT22;7065;50.880;5.502;2023-12-20T14:46:00;7.40;99.90
13982;DHT22;7065;50.880;5.502;2023-12-20T14:48:26;7.40;99.90
13982;DHT22;7065;50.880;5.502;2023-12-20T14:50:53;7.40;99.90
13982;DHT22;7065;50.880;5.502;2023-12-20T14:53:19;7.40;99.90
13982;DHT22;7065;50.880;5.502;2023-12-20T14:55:45;7.40;99.90
13982;DHT22;7065;50.880;5.502;2023-12-20T14:58:11;7.40;99.90
13982;DHT22;7065;50.880;5.502;2023-12-20T15:00:37;7.40;99.90
13982;DHT22;7065;50.880;5.502;2023-12-20T15:03:03;7.40;99.90
13982;DHT22;7065;50.880;5.502;2023-12-20T15:05:30;7.40;99.90
13982;DHT22;7065;50.880;5.502;2023-12-20T15:07:56;7.40;99.90
13982;DHT22;7065;50.880;5.502;2023-12-20T15:10:22;7.40;99.90
13982;DHT22;7065;50.880;5.502;2023-12-20T15:12:48;7.40;99.90
13982;DHT22;7065;50.880;5.502;2023-12-20T15:15:14;7.40;99.90
13982;DHT22;7065;50.880;5.502;2023-12-20T15:17:40;7.40;99.90
13982;DHT22;7065;50.880;5.502;2023-12-20T15:20:06;7.40;99.90
13982;DHT22;7065;50.880;5.502;2023-12-20T15:22:34;7.40;99.90
13982;DHT22;7065;50.880;5.502;2023-12-20T15:25:00;7.50;99.90
13982;DHT22;7065;50.880;5.502;2023-12-20T15:27:27;7.50;99.90
13982;DHT22;7065;50.880;5.502;2023-12-20T15:29:52;7.50;99.90
13982;DHT22;7065;50.880;5.502;2023-12-20T15:32:18;7.50;99.90
13982;DHT22;7065;50.880;5.502;2023-12-20T15:34:48;7.50;99.90
13982;DHT22;7065;50.880;5.502;2023-12-20T15:37:14;7.50;99.90
13982;DHT22;7065;50.880;5.502;2023-12-20T15:39:41;7.50;99.90
13982;DHT22;7065;50.880;5.502;2023-12-20T15:42:08;7.50;99.90
13982;DHT22;7065;50.880;5.502;2023-12-20T15:44:33;7.50;99.90
13982;DHT22;7065;50.880;5.502;2023-12-20T15:46:59;7.50;99.90
13982;DHT22;7065;50.880;5.502;2023-12-20T15:49:25;7.50;99.90
13982;DHT22;7065;50.880;5.502;2023-12-20T15:51:51;7.60;99.90
13982;DHT22;7065;50.880;5.502;2023-12-20T15:54:17;7.60;99.90
13982;DHT22;7065;50.880;5.502;2023-12-20T15:56:43;7.60;99.90
13982;DHT22;7065;50.880;5.502;2023-12-20T15:59:10;7.60;99.90